Time;durP1;ratioP1;P1;durP2;ratioP2;P2;SDS_P1;SDS_P2;PMS_P1;PMS_P2;Temp;Humidity;BMP_temperature;BMP_pressure;BME280_temperature;BME280_humidity;BME280_pressure;Samples;Min_cycle;Max_cycle;Signal;HPM_P1;HPM_P2
2024/02/08 00:00:51;;;;;;;3.90;2.40;;;15.00;99.90;;;;;;5038330;28;20037;-74
2024/02/08 00:03:16;;;;;;;5.30;2.30;;;15.00;99.90;;;;;;5045717;28;20033;-74
2024/02/08 00:05:42;;;;;;;4.90;2.30;;;15.00;99.90;;;;;;5043320;28;20025;-74
2024/02/08 00:08:11;;;;;;;6.97;2.50;;;15.00;99.90;;;;;;5050981;28;20531;-74
2024/02/08 00:10:37;;;;;;;6.70;2.58;;;15.00;99.90;;;;;;5051058;28;20385;-74
2024/02/08 00:13:03;;;;;;;4.60;2.10;;;15.00;99.90;;;;;;5044131;28;20040;-74
2024/02/08 00:15:29;;;;;;;7.60;2.17;;;15.00;99.90;;;;;;5041175;28;20466;-76
2024/02/08 00:17:56;;;;;;;4.15;1.88;;;15.00;99.90;;;;;;5048774;28;20444;-76
2024/02/08 00:20:23;;;;;;;6.43;2.42;;;15.00;99.90;;;;;;5051531;28;20363;-74
2024/02/08 00:22:52;;;;;;;3.85;2.05;;;15.00;99.90;;;;;;5047641;28;20111;-74
2024/02/08 00:25:18;;;;;;;5.53;2.38;;;15.00;99.90;;;;;;5046596;28;20056;-74
2024/02/08 00:27:46;;;;;;;4.68;1.92;;;15.00;99.90;;;;;;5043217;28;20033;-74
2024/02/08 00:30:15;;;;;;;6.18;2.47;;;14.90;99.90;;;;;;5050344;28;20051;-74
2024/02/08 00:32:41;;;;;;;4.43;2.00;;;14.90;99.90;;;;;;5042797;28;20033;-74
2024/02/08 00:35:08;;;;;;;5.75;2.08;;;14.90;99.90;;;;;;5042357;28;20474;-74
2024/02/08 00:37:33;;;;;;;5.40;2.45;;;14.90;99.90;;;;;;5047592;28;20470;-74
2024/02/08 00:39:59;;;;;;;5.53;2.23;;;14.90;99.90;;;;;;5048021;28;20036;-75
2024/02/08 00:42:25;;;;;;;5.43;2.57;;;14.90;99.90;;;;;;5047219;28;20413;-74
2024/02/08 00:44:51;;;;;;;6.10;2.20;;;14.90;99.90;;;;;;5042648;28;20028;-75
2024/02/08 00:47:17;;;;;;;5.38;2.38;;;14.90;99.90;;;;;;5041124;28;20506;-74
2024/02/08 00:49:42;;;;;;;5.70;1.80;;;14.90;99.90;;;;;;5036645;28;20112;-74
2024/02/08 00:52:09;;;;;;;3.00;1.80;;;14.80;99.90;;;;;;5048286;28;20041;-74
2024/02/08 00:54:35;;;;;;;4.78;2.20;;;14.80;99.90;;;;;;5047749;28;20055;-74
2024/02/08 00:57:07;;;;;;;;;;;14.80;99.90;;;;;;5049155;28;20123;-74
2024/02/08 00:59:40;;;;;;;5.05;2.47;;;14.80;99.90;;;;;;5049830;28;19908;-74
2024/02/08 01:02:06;;;;;;;7.13;2.35;;;14.80;99.90;;;;;;5048830;28;20390;-74
2024/02/08 01:04:35;;;;;;;4.28;1.50;;;14.80;99.90;;;;;;5046997;28;20061;-74
2024/02/08 01:07:01;;;;;;;5.30;2.20;;;14.80;99.90;;;;;;5049574;28;20135;-74
2024/02/08 01:09:27;;;;;;;4.38;2.03;;;14.80;99.90;;;;;;5044129;28;20067;-74
2024/02/08 01:11:53;;;;;;;5.13;2.00;;;14.80;99.90;;;;;;5043031;28;20037;-74
2024/02/08 01:14:21;;;;;;;5.20;1.80;;;14.80;99.90;;;;;;5034532;28;20087;-75
2024/02/08 01:16:51;;;;;;;3.05;2.15;;;14.70;99.90;;;;;;5047235;28;20041;-74
2024/02/08 01:19:23;;;;;;;2.92;1.80;;;14.70;99.90;;;;;;5038066;28;20025;-74
2024/02/08 01:21:53;;;;;;;3.40;1.90;;;14.70;99.90;;;;;;5049477;28;20025;-74
2024/02/08 01:24:19;;;;;;;5.35;2.13;;;14.70;99.90;;;;;;5038923;28;20040;-73
2024/02/08 01:26:49;;;;;;;4.10;1.70;;;14.70;99.90;;;;;;5044570;28;20059;-73
2024/02/08 01:29:16;;;;;;;5.20;1.75;;;14.70;99.90;;;;;;5038123;28;20037;-75
2024/02/08 01:31:42;;;;;;;4.57;1.92;;;14.70;99.90;;;;;;5040710;28;20467;-75
2024/02/08 01:34:09;;;;;;;4.50;1.67;;;14.60;99.90;;;;;;5045857;28;20057;-73
2024/02/08 01:36:36;;;;;;;5.50;2.22;;;14.70;99.90;;;;;;5044499;28;20017;-74
2024/02/08 01:39:05;;;;;;;3.65;2.13;;;14.60;99.90;;;;;;5043761;28;20037;-74
2024/02/08 01:41:31;;;;;;;3.85;1.90;;;14.60;99.90;;;;;;5048723;28;20029;-74
2024/02/08 01:44:03;;;;;;;4.20;1.83;;;14.70;99.90;;;;;;5037440;28;20041;-73
2024/02/08 01:46:37;;;;;;;3.92;2.20;;;14.60;99.90;;;;;;5048392;28;20033;-74
2024/02/08 01:49:21;;;;;;;4.57;2.00;;;14.60;99.90;;;;;;5049017;28;20033;-75
2024/02/08 01:51:50;;;;;;;2.40;1.55;;;14.60;99.90;;;;;;5048388;28;20147;-76
2024/02/08 01:54:19;;;;;;;3.65;2.17;;;14.60;99.90;;;;;;5048514;28;20037;-73
2024/02/08 01:56:47;;;;;;;3.45;1.90;;;14.60;99.90;;;;;;5037931;28;20025;-75
2024/02/08 01:59:14;;;;;;;3.08;1.85;;;14.50;99.90;;;;;;5046319;28;20148;-73
2024/02/08 02:01:46;;;;;;;3.97;2.05;;;14.50;99.90;;;;;;5038726;28;20696;-73
2024/02/08 02:04:15;;;;;;;5.15;1.95;;;14.50;99.90;;;;;;5049282;28;20033;-75
2024/02/08 02:06:42;;;;;;;11.02;2.10;;;14.60;99.90;;;;;;5059537;28;20141;-75
2024/02/08 02:09:27;;;;;;;4.28;2.08;;;14.50;99.90;;;;;;5045772;28;20374;-74
2024/02/08 02:12:16;;;;;;;3.35;1.73;;;14.50;99.90;;;;;;5045984;28;20393;-74
2024/02/08 02:14:46;;;;;;;4.22;1.70;;;14.50;99.90;;;;;;5043185;28;20061;-74
2024/02/08 02:17:16;;;;;;;3.08;1.95;;;14.50;99.90;;;;;;5041101;28;20033;-76
2024/02/08 02:19:42;;;;;;;2.42;1.48;;;14.50;99.90;;;;;;5048818;28;20036;-73
2024/02/08 02:22:10;;;;;;;3.58;1.65;;;14.50;99.90;;;;;;5039101;28;20108;-75
2024/02/08 02:24:37;;;;;;;3.35;2.00;;;14.50;99.90;;;;;;5042057;28;20029;-75
2024/02/08 02:27:06;;;;;;;2.83;1.52;;;14.50;99.90;;;;;;5044549;28;20378;-75
2024/02/08 02:29:34;;;;;;;3.20;1.58;;;14.50;99.90;;;;;;5050229;28;20094;-75
2024/02/08 02:32:00;;;;;;;3.15;1.52;;;14.40;99.90;;;;;;5050056;28;20036;-75
2024/02/08 02:34:30;;;;;;;5.28;1.60;;;14.40;99.90;;;;;;5049757;28;20025;-74
2024/02/08 02:37:00;;;;;;;5.05;1.90;;;14.40;99.90;;;;;;5050313;28;20036;-75
2024/02/08 02:39:31;;;;;;;3.00;1.70;;;14.40;99.90;;;;;;5048551;28;20025;-73
2024/02/08 02:41:57;;;;;;;3.20;1.98;;;14.40;99.90;;;;;;5046740;28;20029;-74
2024/02/08 02:44:23;;;;;;;;;;;14.40;99.90;;;;;;5046745;28;20167;-77
2024/02/08 02:46:53;;;;;;;2.00;1.50;;;14.40;99.90;;;;;;5048933;28;19998;-74
2024/02/08 02:49:21;;;;;;;3.92;1.70;;;14.40;99.90;;;;;;5047586;28;20262;-74
2024/02/08 02:51:49;;;;;;;3.03;1.67;;;14.40;99.90;;;;;;5040846;28;20021;-74
2024/02/08 02:54:19;;;;;;;2.40;1.70;;;14.40;99.90;;;;;;5047941;28;20043;-74
2024/02/08 02:56:50;;;;;;;3.92;1.80;;;14.40;99.90;;;;;;5048479;28;20498;-77
2024/02/08 02:59:17;;;;;;;2.55;1.50;;;14.40;99.90;;;;;;5049433;28;20443;-75
2024/02/08 03:01:47;;;;;;;2.63;1.55;;;14.30;99.90;;;;;;5050908;28;20036;-74
2024/02/08 03:04:14;;;;;;;3.28;1.98;;;14.30;99.90;;;;;;5041030;28;20025;-74
2024/02/08 03:06:42;;;;;;;4.28;1.58;;;14.30;99.90;;;;;;5037801;28;20177;-77
2024/02/08 03:09:15;;;;;;;3.13;1.83;;;14.30;99.90;;;;;;5038109;28;20030;-77
2024/02/08 03:11:42;;;;;;;6.57;2.00;;;14.30;99.90;;;;;;5051118;28;20040;-74
2024/02/08 03:14:07;;;;;;;4.25;1.73;;;14.30;99.90;;;;;;5047618;28;20025;-74
2024/02/08 03:17:03;;;;;;;4.23;2.00;;;14.30;99.90;;;;;;5052875;28;20047;-74
2024/02/08 03:19:30;;;;;;;3.75;1.80;;;14.30;99.90;;;;;;5048202;28;20047;-74
2024/02/08 03:21:56;;;;;;;2.97;1.67;;;14.30;99.90;;;;;;5050514;28;20786;-74
2024/02/08 03:24:24;;;;;;;4.17;1.73;;;14.30;99.90;;;;;;5043957;28;20029;-74
2024/02/08 03:26:49;;;;;;;2.72;1.70;;;14.30;99.90;;;;;;5047599;28;20348;-74
2024/02/08 03:29:16;;;;;;;2.50;1.50;;;14.20;99.90;;;;;;5046407;28;20057;-74
2024/02/08 03:31:46;;;;;;;4.00;1.55;;;14.20;99.90;;;;;;5041401;28;20029;-74
2024/02/08 03:34:29;;;;;;;3.45;1.50;;;14.20;99.90;;;;;;5050051;28;20040;-74
2024/02/08 03:36:59;;;;;;;4.20;2.28;;;14.20;99.90;;;;;;5039869;28;20372;-74
2024/02/08 03:39:24;;;;;;;3.17;1.92;;;14.20;99.90;;;;;;5040006;28;20040;-73
2024/02/08 03:42:00;;;;;;;3.00;1.63;;;14.20;99.90;;;;;;5041973;28;20037;-75
2024/02/08 03:44:33;;;;;;;3.97;1.42;;;14.20;99.90;;;;;;5040368;28;20025;-74
2024/02/08 03:47:07;;;;;;;3.40;2.13;;;14.20;99.90;;;;;;5051188;28;20044;-75
2024/02/08 03:49:37;;;;;;;5.90;1.75;;;14.20;99.90;;;;;;5050637;28;20048;-74
2024/02/08 03:52:04;;;;;;;2.63;1.63;;;14.20;99.90;;;;;;5043363;28;20033;-75
2024/02/08 03:54:30;;;;;;;5.20;1.83;;;14.20;99.90;;;;;;5039632;28;20029;-74
2024/02/08 03:57:05;;;;;;;4.10;1.35;;;14.20;99.90;;;;;;5049090;28;20032;-74
2024/02/08 03:59:34;;;;;;;4.40;1.75;;;14.10;99.90;;;;;;5051629;28;20032;-74
2024/02/08 04:02:01;;;;;;;3.47;1.75;;;14.10;99.90;;;;;;5051821;28;20401;-74
2024/02/08 04:04:50;;;;;;;2.92;1.85;;;14.10;99.90;;;;;;5050267;28;20052;-74
2024/02/08 04:07:33;;;;;;;2.67;1.88;;;14.10;99.90;;;;;;5044929;28;20061;-75
2024/02/08 04:10:11;;;;;;;2.42;1.40;;;14.10;99.90;;;;;;5051133;28;20083;-73
2024/02/08 04:53:45;;;;;;;2.00;1.27;;;14.00;99.90;;;;;;5042618;28;20035;-74
2024/02/08 04:56:12;;;;;;;4.82;1.80;;;14.00;99.90;;;;;;5050280;28;20035;-74
2024/02/08 04:58:45;;;;;;;3.63;2.10;;;13.90;99.90;;;;;;5045422;28;20041;-74
2024/02/08 05:01:12;;;;;;;2.45;1.52;;;13.90;99.90;;;;;;5040613;28;20648;-74
2024/02/08 05:03:38;;;;;;;;;;;13.90;99.90;;;;;;5048319;28;20040;-76
2024/02/08 05:06:11;;;;;;;3.35;1.83;;;13.90;99.90;;;;;;5051005;28;19909;-74
2024/02/08 05:08:41;;;;;;;3.25;1.60;;;13.90;99.90;;;;;;5049279;28;20029;-75
2024/02/08 05:11:11;;;;;;;2.53;1.42;;;13.90;99.90;;;;;;5050875;28;20036;-73
2024/02/08 05:13:39;;;;;;;3.50;1.50;;;13.90;99.90;;;;;;5050133;28;20032;-73
2024/02/08 05:16:06;;;;;;;4.47;1.88;;;13.90;99.90;;;;;;5049509;28;20040;-74
2024/02/08 05:18:32;;;;;;;2.80;1.45;;;13.90;99.90;;;;;;5039437;28;20025;-74
2024/02/08 05:20:58;;;;;;;4.07;1.80;;;13.90;99.90;;;;;;5043986;28;20099;-74
2024/02/08 05:23:27;;;;;;;2.43;1.30;;;13.90;99.90;;;;;;5050613;28;20025;-74
2024/02/08 05:25:53;;;;;;;3.95;1.58;;;13.90;99.90;;;;;;5046597;28;20025;-74
2024/02/08 05:28:22;;;;;;;4.17;1.40;;;13.90;99.90;;;;;;5049934;28;20048;-75
2024/02/08 05:30:49;;;;;;;4.18;2.20;;;13.90;99.90;;;;;;5048965;28;20028;-73
2024/02/08 05:33:15;;;;;;;;;;;13.90;99.90;;;;;;5046216;28;20041;-74
2024/02/08 05:35:44;;;;;;;4.43;2.10;;;13.90;99.90;;;;;;5049256;28;19916;-75
2024/02/08 05:38:10;;;;;;;1.77;1.40;;;13.90;99.90;;;;;;5048350;28;20083;-74
2024/02/08 05:40:41;;;;;;;2.43;1.40;;;13.90;99.90;;;;;;5035941;28;20037;-73
2024/02/08 05:43:07;;;;;;;5.13;1.67;;;13.90;99.90;;;;;;5049427;28;20382;-73
2024/02/08 05:45:33;;;;;;;5.65;1.88;;;13.80;99.90;;;;;;5044850;28;20029;-74
2024/02/08 05:48:05;;;;;;;3.13;1.70;;;13.80;99.90;;;;;;5050901;28;20033;-76
2024/02/08 05:50:34;;;;;;;5.97;2.00;;;13.80;99.90;;;;;;5050281;28;20044;-74
2024/02/08 05:53:06;;;;;;;3.40;1.50;;;13.80;99.90;;;;;;5035555;28;20025;-74
2024/02/08 05:55:35;;;;;;;5.82;1.85;;;13.80;99.90;;;;;;5049899;28;20079;-75
2024/02/08 05:58:06;;;;;;;2.90;1.80;;;13.80;99.90;;;;;;5050397;28;20024;-74
2024/02/08 06:00:32;;;;;;;2.13;1.30;;;13.80;99.90;;;;;;5046976;28;20029;-74
2024/02/08 06:03:03;;;;;;;7.43;1.67;;;13.80;99.90;;;;;;5044094;28;20043;-75
2024/02/08 06:05:31;;;;;;;4.40;1.95;;;13.80;99.90;;;;;;5048371;28;20036;-74
2024/02/08 06:07:58;;;;;;;2.33;1.65;;;13.80;99.90;;;;;;5050161;28;20025;-73
2024/02/08 06:10:41;;;;;;;5.82;1.67;;;13.70;99.90;;;;;;5050666;28;20071;-74
2024/02/08 06:13:13;;;;;;;2.67;1.83;;;13.80;99.90;;;;;;5049310;28;20025;-73
2024/02/08 06:15:50;;;;;;;3.03;1.55;;;13.70;99.90;;;;;;5042617;28;20087;-74
2024/02/08 06:18:24;;;;;;;3.20;1.60;;;13.70;99.90;;;;;;5043541;28;20087;-74
2024/02/08 06:20:59;;;;;;;4.45;1.73;;;13.70;99.90;;;;;;5049672;28;20079;-74
2024/02/08 06:23:34;;;;;;;2.25;1.65;;;13.70;99.90;;;;;;5035778;28;20449;-74
2024/02/08 06:28:52;;;;;;;7.45;3.30;;;13.70;99.90;;;;;;5049036;28;20080;-75
2024/02/08 06:31:19;;;;;;;5.45;3.00;;;13.70;99.90;;;;;;5054013;28;20033;-76
2024/02/08 06:36:33;;;;;;;17.70;8.13;;;13.70;99.90;;;;;;5054055;28;20036;-74
2024/02/08 06:39:20;;;;;;;8.63;5.15;;;13.70;99.90;;;;;;5051784;28;20561;-75
2024/02/08 06:41:52;;;;;;;9.43;4.20;;;13.70;99.90;;;;;;5051550;28;20037;-75
2024/02/08 06:47:54;;;;;;;24.63;12.55;;;13.70;99.90;;;;;;5050792;28;20029;-74
2024/02/08 07:39:34;;;;;;;11.18;6.82;;;14.20;99.90;;;;;;5051613;28;20074;-75
2024/02/08 07:42:20;;;;;;;12.05;6.45;;;14.20;99.90;;;;;;5050816;28;20032;-74
2024/02/08 07:44:54;;;;;;;12.27;6.60;;;14.20;99.90;;;;;;5046816;28;20017;-74
2024/02/08 07:47:24;;;;;;;9.45;5.72;;;14.10;99.90;;;;;;5048858;28;20091;-74
2024/02/08 07:49:57;;;;;;;11.73;6.13;;;14.20;99.90;;;;;;5044686;28;20025;-73
2024/02/08 07:52:24;;;;;;;13.07;6.68;;;14.20;99.90;;;;;;5049893;28;20053;-74
2024/02/08 07:55:03;;;;;;;13.60;5.93;;;14.20;99.90;;;;;;5049659;28;20023;-72
2024/02/08 07:57:36;;;;;;;144.55;87.05;;;14.20;99.90;;;;;;5048941;28;20037;-74
2024/02/08 08:00:02;;;;;;;77.93;46.53;;;14.20;99.90;;;;;;5051966;28;20032;-73
2024/02/08 08:02:29;;;;;;;41.13;26.43;;;14.20;99.90;;;;;;5050876;28;20067;-74
2024/02/08 08:04:56;;;;;;;46.65;29.27;;;14.30;99.90;;;;;;5052060;28;20021;-74
2024/02/08 08:07:24;;;;;;;;;;;14.30;99.90;;;;;;5050883;28;20036;-74
2024/02/08 08:09:59;;;;;;;47.10;25.40;;;14.30;99.90;;;;;;5052014;28;19905;-74
2024/02/08 08:12:29;;;;;;;44.97;26.00;;;14.40;99.90;;;;;;5052117;28;20451;-74
2024/02/08 08:19:55;;;;;;;37.63;23.52;;;14.40;99.90;;;;;;5051893;28;20033;-73
2024/02/08 08:30:27;;;;;;;32.20;19.33;;;14.40;99.90;;;;;;5051804;28;20492;-74
2024/02/08 08:35:45;;;;;;;29.60;17.70;;;14.50;99.90;;;;;;5051769;28;20044;-73
2024/02/08 08:40:48;;;;;;;29.52;18.00;;;14.50;99.90;;;;;;5051502;28;20032;-74
2024/02/08 08:43:22;;;;;;;29.33;17.17;;;14.50;99.90;;;;;;5051887;28;20071;-74
2024/02/08 08:45:52;;;;;;;28.33;16.35;;;14.50;99.90;;;;;;5051220;28;20074;-75
2024/02/08 08:48:21;;;;;;;28.98;16.73;;;14.50;99.90;;;;;;5051536;28;20021;-73
2024/02/08 08:50:54;;;;;;;30.48;15.80;;;14.50;99.90;;;;;;5049404;28;20036;-74
2024/02/08 08:53:27;;;;;;;22.90;14.93;;;14.50;99.90;;;;;;5050051;28;20394;-74
2024/02/08 08:55:57;;;;;;;24.65;15.05;;;14.60;99.90;;;;;;5049797;28;20047;-74
2024/02/08 08:58:39;;;;;;;25.73;14.68;;;14.50;99.90;;;;;;5049902;28;20052;-74
2024/02/08 09:01:15;;;;;;;25.88;14.52;;;14.50;99.90;;;;;;5050655;28;20092;-74
2024/02/08 09:03:44;;;;;;;20.77;14.50;;;14.50;99.90;;;;;;5051235;28;20028;-76
2024/02/08 09:06:14;;;;;;;19.42;13.73;;;14.50;99.90;;;;;;5049681;28;20033;-74
2024/02/08 09:09:27;;;;;;;21.67;12.25;;;14.50;99.90;;;;;;5046637;28;20041;-73
2024/02/08 09:11:29;;;;;;;17.40;11.77;;;14.50;99.90;;;;;;5049734;28;20453;-76
2024/02/08 09:13:55;;;;;;;;;;;14.50;99.90;;;;;;5051506;28;20021;-73
2024/02/08 09:21:45;;;;;;;21.27;12.10;;;14.60;99.90;;;;;;5050798;28;20049;-73
2024/02/08 09:24:17;;;;;;;20.35;11.60;;;14.60;99.90;;;;;;5043994;28;20038;-75
2024/02/08 09:27:00;;;;;;;19.75;12.43;;;14.60;99.90;;;;;;5044579;28;20025;-74
2024/02/08 09:29:26;;;;;;;16.40;10.98;;;14.60;99.90;;;;;;5038478;28;20048;-77
2024/02/08 09:31:58;;;;;;;19.70;10.30;;;14.60;99.90;;;;;;5050368;28;20024;-74
2024/02/08 09:34:53;;;;;;;18.50;10.50;;;14.60;99.90;;;;;;5050741;28;20080;-74
2024/02/08 09:37:13;;;;;;;17.00;10.13;;;14.60;99.90;;;;;;5049948;28;20474;-75
2024/02/08 09:39:53;;;;;;;17.05;9.80;;;14.60;99.90;;;;;;5050816;28;20017;-75
2024/02/08 09:42:26;;;;;;;16.70;9.68;;;14.50;99.90;;;;;;5050371;28;20051;-76
2024/02/08 09:44:56;;;;;;;17.98;9.93;;;14.60;99.90;;;;;;5050480;28;20108;-75
2024/02/08 09:47:31;;;;;;;16.75;9.40;;;14.60;99.90;;;;;;5050430;28;20029;-74
2024/02/08 09:50:00;;;;;;;20.40;9.85;;;14.60;99.90;;;;;;5050740;28;20025;-74
2024/02/08 09:52:40;;;;;;;14.00;9.02;;;14.60;99.90;;;;;;5049951;28;20119;-73
2024/02/08 09:55:18;;;;;;;13.85;9.10;;;14.60;99.90;;;;;;5050327;28;20111;-75
2024/02/08 09:57:47;;;;;;;19.42;9.50;;;14.60;99.90;;;;;;5050390;28;20021;-74
2024/02/08 10:00:35;;;;;;;16.90;8.32;;;14.60;99.90;;;;;;5049018;28;20047;-73
2024/02/08 10:03:06;;;;;;;14.35;8.20;;;14.60;99.90;;;;;;5050361;28;20026;-74
2024/02/08 10:05:52;;;;;;;13.98;8.50;;;14.60;99.90;;;;;;5053382;28;20056;-75
2024/02/08 10:08:32;;;;;;;12.45;7.88;;;14.60;99.90;;;;;;5050999;28;20040;-75
2024/02/08 10:14:02;;;;;;;13.48;8.13;;;14.60;99.90;;;;;;5050732;28;20029;-75
2024/02/08 10:16:29;;;;;;;11.68;7.13;;;14.60;99.90;;;;;;5051629;28;20037;-74
2024/02/08 10:19:04;;;;;;;12.70;7.85;;;14.60;99.90;;;;;;5051358;28;20099;-73
2024/02/08 10:21:35;;;;;;;12.32;7.35;;;14.60;99.90;;;;;;5051459;28;20137;-74
2024/02/08 10:24:11;;;;;;;11.82;6.88;;;14.60;99.90;;;;;;5050923;28;20087;-73
2024/02/08 10:26:45;;;;;;;12.20;7.07;;;14.60;99.90;;;;;;5051945;28;20083;-75
2024/02/08 10:29:14;;;;;;;14.13;6.65;;;14.60;99.90;;;;;;5051387;28;20278;-73
2024/02/08 10:31:40;;;;;;;13.52;6.85;;;14.60;99.90;;;;;;5051679;28;20067;-74
2024/02/08 10:34:09;;;;;;;13.85;6.60;;;14.60;99.90;;;;;;5049902;28;20032;-74
2024/02/08 10:36:44;;;;;;;15.65;6.40;;;14.60;99.90;;;;;;5051491;28;20067;-74
2024/02/08 10:39:26;;;;;;;11.55;6.68;;;14.60;99.90;;;;;;5051105;28;20025;-76
2024/02/08 10:44:24;;;;;;;10.75;6.03;;;14.60;99.90;;;;;;5049816;28;20108;-76
2024/02/08 10:46:57;;;;;;;10.00;5.47;;;14.60;99.90;;;;;;5051391;28;20536;-74
2024/02/08 10:49:23;;;;;;;13.65;6.32;;;14.50;99.90;;;;;;5046772;28;20116;-73
2024/02/08 10:51:50;;;;;;;10.47;6.27;;;14.60;99.90;;;;;;5052204;28;20112;-73
2024/02/08 10:54:23;;;;;;;9.63;5.82;;;14.60;99.90;;;;;;5053296;28;20477;-73
2024/02/08 10:57:08;;;;;;;8.52;5.32;;;14.50;99.90;;;;;;5053706;28;20087;-75
2024/02/08 10:59:48;;;;;;;9.25;5.50;;;14.60;99.90;;;;;;5053590;28;20032;-74
2024/02/08 11:02:48;;;;;;;9.75;5.95;;;14.50;99.90;;;;;;5053438;28;20033;-74
2024/02/08 11:06:00;;;;;;;8.23;5.63;;;14.50;99.90;;;;;;5040947;28;20036;-74
2024/02/08 11:08:07;;;;;;;9.73;5.45;;;14.50;99.90;;;;;;5036044;28;20127;-74
2024/02/08 11:10:33;;;;;;;11.95;5.35;;;14.60;99.90;;;;;;5052997;28;20032;-74
2024/02/08 11:13:10;;;;;;;15.03;5.93;;;14.60;99.90;;;;;;5053354;28;20032;-74
2024/02/08 11:15:41;;;;;;;10.20;4.82;;;14.60;99.90;;;;;;5052125;28;20024;-74
2024/02/08 11:18:33;;;;;;;9.43;5.00;;;14.60;99.90;;;;;;5053487;28;20036;-74
2024/02/08 11:21:03;;;;;;;10.68;5.35;;;14.50;99.90;;;;;;5052426;28;20045;-73
2024/02/08 11:23:31;;;;;;;6.78;5.10;;;14.60;99.90;;;;;;5049432;28;20029;-73
2024/02/08 11:26:06;;;;;;;7.18;4.60;;;14.50;99.90;;;;;;5040815;28;20066;-74
2024/02/08 11:28:44;;;;;;;9.02;4.80;;;14.50;99.90;;;;;;5051254;28;20049;-74
2024/02/08 11:31:13;;;;;;;10.27;4.78;;;14.50;99.90;;;;;;5053289;28;20068;-74
2024/02/08 11:33:42;;;;;;;10.77;4.80;;;14.50;99.90;;;;;;5052630;28;20047;-73
2024/02/08 11:36:12;;;;;;;10.20;4.75;;;14.50;99.90;;;;;;5052955;28;20029;-73
2024/02/08 11:38:40;;;;;;;7.00;4.15;;;14.50;99.90;;;;;;5051639;28;20021;-75
2024/02/08 11:41:18;;;;;;;11.52;4.35;;;14.50;99.90;;;;;;5051327;28;20090;-76
2024/02/08 11:43:47;;;;;;;8.93;4.63;;;14.50;99.90;;;;;;5053109;28;20025;-74
2024/02/08 11:46:18;;;;;;;11.35;4.50;;;14.50;99.90;;;;;;5038771;28;20029;-76
2024/02/08 11:48:46;;;;;;;11.48;4.90;;;14.50;99.90;;;;;;5052289;28;20056;-73
2024/02/08 11:51:13;;;;;;;8.05;3.90;;;14.50;99.90;;;;;;5052499;28;20057;-74
2024/02/08 11:53:41;;;;;;;8.00;3.58;;;14.50;99.90;;;;;;5051315;28;20033;-74
2024/02/08 11:56:08;;;;;;;10.95;4.35;;;14.50;99.90;;;;;;5052384;28;20025;-74
2024/02/08 11:58:40;;;;;;;8.85;4.30;;;14.50;99.90;;;;;;5052261;28;20025;-74
2024/02/08 12:01:06;;;;;;;8.38;3.90;;;14.50;99.90;;;;;;5050796;28;20043;-76
2024/02/08 12:03:32;;;;;;;8.70;3.53;;;14.50;99.90;;;;;;5051119;28;20038;-74
2024/02/08 12:05:58;;;;;;;10.00;4.28;;;14.50;99.90;;;;;;5050875;28;20041;-73
2024/02/08 12:08:25;;;;;;;9.43;4.20;;;14.50;99.90;;;;;;5051083;28;20078;-74
2024/02/08 12:10:51;;;;;;;6.32;3.47;;;14.50;99.90;;;;;;5050728;28;20462;-74
2024/02/08 12:13:25;;;;;;;10.05;4.03;;;14.40;99.90;;;;;;5051966;28;20033;-74
2024/02/08 12:15:58;;;;;;;7.15;3.83;;;14.40;99.90;;;;;;5034181;28;20498;-74
2024/02/08 12:18:28;;;;;;;5.60;3.45;;;14.40;99.90;;;;;;5046687;28;20025;-74
2024/02/08 12:21:01;;;;;;;8.45;3.90;;;14.40;99.90;;;;;;5043831;28;20040;-74
2024/02/08 12:23:30;;;;;;;5.93;3.38;;;14.40;99.90;;;;;;5049478;28;20029;-74
2024/02/08 12:26:03;;;;;;;6.32;3.42;;;14.40;99.90;;;;;;5048893;28;20139;-74
2024/02/08 12:28:38;;;;;;;8.57;3.65;;;14.40;99.90;;;;;;5049829;28;20113;-73
2024/02/08 12:31:16;;;;;;;6.18;3.22;;;14.40;99.90;;;;;;5051931;28;20025;-75
2024/02/08 12:33:45;;;;;;;6.63;3.10;;;14.40;99.90;;;;;;5051776;28;20029;-74
2024/02/08 12:36:20;;;;;;;5.97;3.35;;;14.30;99.90;;;;;;5051671;28;20029;-73
2024/02/08 12:38:47;;;;;;;4.78;2.83;;;14.30;99.90;;;;;;5051295;28;20505;-73
2024/02/08 12:41:15;;;;;;;7.40;3.97;;;14.30;99.90;;;;;;5050093;28;20033;-73
2024/02/08 12:43:42;;;;;;;7.30;3.22;;;14.30;99.90;;;;;;5051696;28;20021;-74
2024/02/08 12:46:08;;;;;;;7.00;3.03;;;14.30;99.90;;;;;;5051473;28;20558;-73
2024/02/08 12:48:34;;;;;;;6.60;3.17;;;14.30;99.90;;;;;;5050272;28;20163;-75
2024/02/08 12:51:03;;;;;;;5.40;3.20;;;14.30;99.90;;;;;;5050484;28;20047;-73
2024/02/08 12:53:33;;;;;;;6.22;3.25;;;14.30;99.90;;;;;;5051845;28;20467;-74
2024/02/08 12:56:09;;;;;;;6.82;3.05;;;14.30;99.90;;;;;;5043342;28;20033;-74
2024/02/08 12:58:35;;;;;;;8.00;3.10;;;14.20;99.90;;;;;;5051487;28;20035;-73
2024/02/08 13:01:04;;;;;;;6.38;3.05;;;14.20;99.90;;;;;;5050676;28;20446;-74
2024/02/08 13:03:36;;;;;;;5.68;2.97;;;14.20;99.90;;;;;;5049771;28;20035;-75
2024/02/08 13:06:11;;;;;;;5.40;2.92;;;14.20;99.90;;;;;;5051394;28;20500;-74
2024/02/08 13:08:37;;;;;;;5.75;2.83;;;14.20;99.90;;;;;;5051409;28;20028;-74
2024/02/08 13:11:03;;;;;;;5.43;3.07;;;14.20;99.90;;;;;;5050950;28;20090;-74
2024/02/08 13:13:29;;;;;;;7.25;2.90;;;14.20;99.90;;;;;;5049551;28;20025;-74
2024/02/08 13:16:04;;;;;;;4.77;2.60;;;14.10;99.90;;;;;;5049477;28;20044;-75
2024/02/08 13:18:31;;;;;;;6.05;2.97;;;14.10;99.90;;;;;;5037337;28;20055;-73
2024/02/08 13:21:03;;;;;;;5.15;2.65;;;14.10;99.90;;;;;;5050882;28;20068;-74
2024/02/08 13:23:30;;;;;;;5.80;2.60;;;14.10;99.90;;;;;;5050866;28;20379;-74
2024/02/08 13:25:56;;;;;;;5.55;3.03;;;14.10;99.90;;;;;;5048964;28;20033;-74
2024/02/08 13:28:26;;;;;;;5.20;2.60;;;14.10;99.90;;;;;;5050648;28;20055;-73
2024/02/08 13:30:56;;;;;;;5.65;3.00;;;14.10;99.90;;;;;;5049183;28;20029;-75
2024/02/08 13:33:22;;;;;;;4.03;2.15;;;14.00;99.90;;;;;;5050810;28;20024;-74
2024/02/08 13:35:47;;;;;;;7.87;2.83;;;14.00;99.90;;;;;;5049402;28;20025;-73
2024/02/08 13:38:15;;;;;;;5.47;2.37;;;14.10;99.90;;;;;;5048888;28;20025;-75
2024/02/08 13:40:45;;;;;;;3.25;2.13;;;14.00;99.90;;;;;;5050271;28;20060;-76
2024/02/08 13:43:12;;;;;;;4.00;2.40;;;14.00;99.90;;;;;;5051090;28;20025;-77
2024/02/08 13:45:41;;;;;;;3.88;2.22;;;14.00;99.90;;;;;;5050678;28;20466;-74
2024/02/08 13:48:14;;;;;;;4.07;2.50;;;14.00;99.90;;;;;;5049630;28;20124;-74
2024/02/08 13:50:43;;;;;;;6.35;2.63;;;14.00;99.90;;;;;;5049028;28;20043;-74
2024/02/08 13:53:14;;;;;;;9.23;2.47;;;14.00;99.90;;;;;;5049308;28;20033;-75
2024/02/08 13:55:51;;;;;;;5.40;3.00;;;13.90;99.90;;;;;;5049425;28;20466;-74
2024/02/08 13:58:18;;;;;;;6.07;2.50;;;13.90;99.90;;;;;;5033614;28;20402;-74
2024/02/08 14:00:44;;;;;;;3.90;2.50;;;13.90;99.90;;;;;;5043056;28;20535;-74
2024/02/08 14:03:10;;;;;;;3.53;2.30;;;13.90;99.90;;;;;;5048908;28;20033;-73
2024/02/08 14:05:41;;;;;;;4.87;2.37;;;13.90;99.90;;;;;;5049289;28;20122;-74
2024/02/08 14:08:16;;;;;;;6.88;2.30;;;13.90;99.90;;;;;;5049384;28;20052;-74
2024/02/08 14:10:43;;;;;;;5.55;2.03;;;13.90;99.90;;;;;;5050704;28;20164;-73
2024/02/08 14:13:14;;;;;;;5.40;2.38;;;13.90;99.90;;;;;;5050673;28;20493;-75
2024/02/08 14:15:45;;;;;;;5.07;2.20;;;13.90;99.90;;;;;;5050352;28;20036;-74
2024/02/08 14:18:30;;;;;;;5.47;2.33;;;13.90;99.90;;;;;;5050101;28;20107;-74
2024/02/08 14:20:57;;;;;;;5.28;2.17;;;13.90;99.90;;;;;;5046510;28;20071;-73
2024/02/08 14:23:30;;;;;;;5.55;2.58;;;13.90;99.90;;;;;;5049669;28;20108;-74
2024/02/08 14:28:42;;;;;;;4.32;2.20;;;13.90;99.90;;;;;;5046922;28;20490;-74
2024/02/08 14:31:09;;;;;;;8.05;2.47;;;13.80;99.90;;;;;;5050383;28;20028;-74
2024/02/08 14:33:35;;;;;;;3.90;2.10;;;13.80;99.90;;;;;;5050037;28;20040;-74
2024/02/08 14:36:08;;;;;;;5.68;2.70;;;13.80;99.90;;;;;;5048927;28;20143;-74
2024/02/08 14:38:40;;;;;;;4.38;2.30;;;13.80;99.90;;;;;;5050223;28;20017;-74
2024/02/08 14:41:07;;;;;;;4.93;1.83;;;13.80;99.90;;;;;;5049792;28;20054;-74
2024/02/08 14:43:33;;;;;;;3.05;2.08;;;13.80;99.90;;;;;;5049792;28;20041;-74
2024/02/08 14:46:02;;;;;;;5.33;2.40;;;13.80;99.90;;;;;;5050363;28;20087;-74
2024/02/08 14:48:37;;;;;;;4.28;2.00;;;13.70;99.90;;;;;;5050055;28;20212;-74
2024/02/08 14:53:44;;;;;;;5.25;2.05;;;13.70;99.90;;;;;;5053510;28;20036;-74
2024/02/08 14:56:19;;;;;;;5.40;2.40;;;13.70;99.90;;;;;;5053539;28;20470;-74
2024/02/08 14:59:09;;;;;;;5.85;2.08;;;13.70;99.90;;;;;;5052377;28;20025;-74
2024/02/08 15:01:38;;;;;;;5.43;1.90;;;13.70;99.90;;;;;;5049977;28;20041;-74
2024/02/08 15:04:25;;;;;;;5.47;2.47;;;13.70;99.90;;;;;;5052641;28;20024;-74
2024/02/08 15:14:36;;;;;;;4.45;2.30;;;13.70;99.90;;;;;;5053221;28;20032;-74
2024/02/08 15:17:07;;;;;;;5.57;2.03;;;13.60;99.90;;;;;;5052152;28;20071;-74
2024/02/08 15:19:52;;;;;;;3.65;1.92;;;13.60;99.90;;;;;;5052778;28;20025;-75
2024/02/08 15:22:46;;;;;;;6.47;2.00;;;13.60;99.90;;;;;;5053536;28;20029;-75
2024/02/08 15:25:06;;;;;;;5.55;1.85;;;13.60;99.90;;;;;;5052489;28;20021;-75